Time;durP1;ratioP1;P1;durP2;ratioP2;P2;SDS_P1;SDS_P2;PMS_P1;PMS_P2;Temp;Humidity;BMP_temperature;BMP_pressure;BME280_temperature;BME280_humidity;BME280_pressure;Samples;Min_cycle;Max_cycle;Signal;HPM_P1;HPM_P2
2023/05/20 00:00:07;;;;;;;9.30;8.80;;;15.10;27.20;;;;;;5066663;28;20182;-74
2023/05/20 00:02:32;;;;;;;9.57;8.77;;;15.10;27.30;;;;;;5049594;28;20452;-74
2023/05/20 00:04:58;;;;;;;9.50;9.00;;;15.10;27.60;;;;;;5067954;28;20955;-75
2023/05/20 00:07:24;;;;;;;10.10;9.53;;;15.00;27.80;;;;;;5067827;28;20179;-75
2023/05/20 00:09:49;;;;;;;10.10;9.57;;;15.00;27.80;;;;;;5048158;28;20266;-74
2023/05/20 00:12:15;;;;;;;8.87;8.40;;;15.00;27.90;;;;;;5065880;28;20171;-75
2023/05/20 00:14:41;;;;;;;10.23;9.53;;;15.10;27.80;;;;;;5065479;28;20262;-76
2023/05/20 00:17:07;;;;;;;9.17;8.67;;;15.10;27.90;;;;;;5069007;28;20167;-75
2023/05/20 00:19:32;;;;;;;9.03;8.53;;;15.10;28.00;;;;;;5067466;28;20402;-75
2023/05/20 00:21:58;;;;;;;9.97;9.20;;;15.10;28.00;;;;;;5050523;28;20183;-74
2023/05/20 00:24:24;;;;;;;10.23;9.63;;;15.10;28.00;;;;;;5048879;28;20214;-75
2023/05/20 00:26:50;;;;;;;11.00;10.00;;;15.10;28.00;;;;;;5048296;28;20183;-75
2023/05/20 00:29:15;;;;;;;10.07;9.37;;;15.10;28.00;;;;;;5065244;28;20425;-75
2023/05/20 00:31:41;;;;;;;9.33;8.80;;;15.10;28.60;;;;;;5065370;28;20234;-75
2023/05/20 00:34:07;;;;;;;10.40;9.67;;;15.00;28.50;;;;;;5067336;28;20644;-74
2023/05/20 00:36:32;;;;;;;9.90;9.30;;;15.00;28.60;;;;;;5068282;28;20171;-74
2023/05/20 00:38:58;;;;;;;10.63;10.00;;;15.10;28.70;;;;;;5065985;28;20540;-74
2023/05/20 00:41:23;;;;;;;11.73;11.03;;;15.10;28.70;;;;;;5065076;28;20556;-74
2023/05/20 00:43:53;;;;;;;10.80;10.20;;;15.10;28.80;;;;;;5063516;28;20196;-76
2023/05/20 00:46:19;;;;;;;10.40;9.87;;;15.10;28.80;;;;;;5063863;28;20729;-75
2023/05/20 00:48:45;;;;;;;11.30;10.60;;;15.00;29.90;;;;;;5066854;28;20455;-75
2023/05/20 00:51:11;;;;;;;10.43;9.63;;;15.00;29.20;;;;;;5066414;28;20972;-76
2023/05/20 00:53:38;;;;;;;11.17;10.37;;;15.00;29.20;;;;;;5066167;28;20187;-75
2023/05/20 00:56:04;;;;;;;10.50;9.80;;;15.10;29.20;;;;;;5064571;28;20421;-75
2023/05/20 00:58:30;;;;;;;9.67;8.97;;;15.10;29.30;;;;;;5065350;28;20390;-75
2023/05/20 01:00:55;;;;;;;10.80;10.20;;;15.00;29.20;;;;;;5066404;28;20406;-76
2023/05/20 01:03:21;;;;;;;10.80;10.20;;;15.00;29.80;;;;;;5065030;28;20516;-75
2023/05/20 01:05:46;;;;;;;11.10;10.07;;;14.80;30.00;;;;;;5065284;28;20175;-75
2023/05/20 01:08:12;;;;;;;10.03;9.43;;;14.80;30.40;;;;;;5065391;28;20179;-75
2023/05/20 01:10:41;;;;;;;11.37;10.43;;;14.80;30.10;;;;;;5065286;28;20607;-76
2023/05/20 01:13:10;;;;;;;10.93;10.23;;;14.80;30.30;;;;;;5068365;28;20172;-74
2023/05/20 01:15:39;;;;;;;10.30;9.80;;;14.80;30.50;;;;;;5065776;28;20520;-76
2023/05/20 01:18:09;;;;;;;10.17;9.63;;;14.80;30.50;;;;;;5066185;28;20428;-75
2023/05/20 01:20:36;;;;;;;10.47;9.97;;;14.80;30.40;;;;;;5052196;28;20424;-75
2023/05/20 01:23:02;;;;;;;11.00;10.30;;;14.80;30.20;;;;;;5068742;28;20417;-75
2023/05/20 01:25:27;;;;;;;10.43;9.93;;;14.90;30.60;;;;;;5050643;28;20946;-76
2023/05/20 01:27:56;;;;;;;11.87;11.20;;;14.80;30.80;;;;;;5067120;28;20413;-76
2023/05/20 01:30:27;;;;;;;10.47;9.97;;;14.80;31.20;;;;;;5068847;28;20206;-76
2023/05/20 01:33:07;;;;;;;10.30;9.80;;;14.80;30.70;;;;;;5067748;28;20409;-75
2023/05/20 01:35:34;;;;;;;11.70;10.90;;;14.80;31.00;;;;;;5067095;28;20769;-76
2023/05/20 01:38:01;;;;;;;10.80;10.20;;;14.80;30.80;;;;;;5068823;28;20404;-73
2023/05/20 01:40:27;;;;;;;11.20;10.47;;;15.00;30.70;;;;;;5051188;28;20414;-75
2023/05/20 01:42:54;;;;;;;10.80;10.10;;;14.80;30.50;;;;;;5066757;28;20406;-76
2023/05/20 01:45:22;;;;;;;11.93;11.20;;;14.70;31.10;;;;;;5066771;28;20445;-74
2023/05/20 01:47:48;;;;;;;11.30;10.60;;;14.60;31.70;;;;;;5066334;28;20449;-76
2023/05/20 01:50:14;;;;;;;10.60;10.10;;;14.60;31.90;;;;;;5065512;28;20921;-76
2023/05/20 01:52:39;;;;;;;11.30;10.70;;;14.60;31.80;;;;;;5065469;28;20500;-75
2023/05/20 01:55:05;;;;;;;10.90;10.30;;;14.60;31.60;;;;;;5048965;28;20282;-76
2023/05/20 01:57:31;;;;;;;10.40;9.90;;;14.60;32.00;;;;;;5064899;28;20172;-75
2023/05/20 01:59:56;;;;;;;11.40;10.57;;;14.70;31.90;;;;;;5065135;28;20202;-75
2023/05/20 02:02:22;;;;;;;10.87;10.27;;;14.70;31.50;;;;;;5065424;28;20193;-75
2023/05/20 02:04:49;;;;;;;11.50;10.80;;;14.70;31.30;;;;;;5066742;28;20290;-74
2023/05/20 02:07:15;;;;;;;11.57;10.77;;;14.80;31.30;;;;;;5065635;28;20544;-74
2023/05/20 02:09:41;;;;;;;10.53;10.03;;;14.70;31.40;;;;;;5066299;28;20410;-75
2023/05/20 02:12:07;;;;;;;12.03;11.13;;;14.80;31.30;;;;;;5048528;28;20448;-76
2023/05/20 02:14:33;;;;;;;11.47;10.87;;;14.80;31.30;;;;;;5064360;28;20696;-76
2023/05/20 02:16:58;;;;;;;12.57;11.77;;;14.80;31.30;;;;;;5063324;28;20410;-74
2023/05/20 02:19:24;;;;;;;12.27;11.60;;;14.70;31.40;;;;;;5067213;28;20176;-75
2023/05/20 02:21:50;;;;;;;11.83;10.90;;;14.70;31.50;;;;;;5064608;28;20642;-74
2023/05/20 02:24:16;;;;;;;11.90;11.10;;;14.70;31.50;;;;;;5065134;28;20646;-75
2023/05/20 02:26:43;;;;;;;11.73;11.23;;;14.70;31.70;;;;;;5064160;28;20900;-75
2023/05/20 02:29:08;;;;;;;12.97;12.17;;;14.60;31.90;;;;;;5064416;28;20401;-75
2023/05/20 02:31:34;;;;;;;10.93;10.33;;;14.60;31.90;;;;;;5067386;28;20467;-74
2023/05/20 02:34:00;;;;;;;11.53;10.83;;;14.60;32.20;;;;;;5047048;28;20226;-74
2023/05/20 02:36:26;;;;;;;11.83;11.17;;;14.50;32.50;;;;;;5065113;28;20581;-75
2023/05/20 02:38:55;;;;;;;11.60;11.00;;;14.50;32.50;;;;;;5065949;28;20218;-74
2023/05/20 02:41:21;;;;;;;11.83;11.23;;;14.50;32.70;;;;;;5063952;28;20410;-75
2023/05/20 02:43:46;;;;;;;12.40;11.70;;;14.50;32.60;;;;;;5064104;28;20433;-75
2023/05/20 02:46:12;;;;;;;10.67;10.27;;;14.60;32.60;;;;;;5062745;28;20513;-75
2023/05/20 02:48:37;;;;;;;12.20;11.50;;;14.50;32.50;;;;;;5046243;28;20187;-75
2023/05/20 02:51:04;;;;;;;11.90;11.30;;;14.50;32.50;;;;;;5046831;28;20203;-74
2023/05/20 02:53:30;;;;;;;11.77;11.17;;;14.50;32.60;;;;;;5065038;28;20148;-74
2023/05/20 02:55:56;;;;;;;12.20;11.60;;;14.40;33.30;;;;;;5064337;28;20418;-75
2023/05/20 02:58:25;;;;;;;11.50;10.80;;;14.40;33.40;;;;;;5064259;28;20195;-74
2023/05/20 03:00:53;;;;;;;12.33;11.73;;;14.30;33.90;;;;;;5046093;28;20417;-74
2023/05/20 03:03:19;;;;;;;11.40;10.90;;;14.30;34.10;;;;;;5061631;28;20425;-74
2023/05/20 03:05:45;;;;;;;12.03;11.43;;;14.20;33.90;;;;;;5044527;28;20420;-75
2023/05/20 03:08:11;;;;;;;12.43;11.80;;;14.20;34.60;;;;;;5044614;28;20700;-74
2023/05/20 03:10:37;;;;;;;10.97;10.37;;;14.20;34.10;;;;;;5062177;28;20249;-74
2023/05/20 03:13:07;;;;;;;11.83;11.23;;;14.20;33.90;;;;;;5061939;28;20464;-74
2023/05/20 03:15:34;;;;;;;12.90;12.20;;;14.20;34.50;;;;;;5063073;28;20429;-76
2023/05/20 03:18:00;;;;;;;11.77;10.97;;;14.30;34.20;;;;;;5061962;28;20401;-75
2023/05/20 03:20:27;;;;;;;12.53;11.60;;;14.40;34.00;;;;;;5045329;28;20744;-76
2023/05/20 03:22:53;;;;;;;11.67;10.97;;;14.40;33.60;;;;;;5061966;28;20505;-76
2023/05/20 03:25:19;;;;;;;11.20;10.60;;;14.40;33.90;;;;;;5062456;28;20478;-75
2023/05/20 03:27:45;;;;;;;12.20;11.60;;;14.30;33.80;;;;;;5060908;28;20175;-75
2023/05/20 03:30:11;;;;;;;12.17;11.57;;;14.20;34.50;;;;;;5044832;28;20457;-75
2023/05/20 03:32:37;;;;;;;11.93;11.37;;;14.20;34.90;;;;;;5063410;28;20316;-74
2023/05/20 03:35:02;;;;;;;12.10;11.60;;;14.30;34.80;;;;;;5045053;28;20563;-77
2023/05/20 03:37:28;;;;;;;12.23;11.60;;;14.30;34.90;;;;;;5061055;28;20167;-74
2023/05/20 03:39:53;;;;;;;12.10;11.50;;;14.30;34.40;;;;;;5060344;28;20185;-75
2023/05/20 03:42:19;;;;;;;12.00;11.40;;;14.20;34.70;;;;;;5058505;28;20187;-75
2023/05/20 03:44:44;;;;;;;12.43;11.83;;;14.10;35.10;;;;;;5060354;28;20673;-75
2023/05/20 03:47:10;;;;;;;11.30;10.80;;;14.10;35.10;;;;;;5061509;28;20525;-76
2023/05/20 03:49:35;;;;;;;12.90;12.30;;;14.10;35.50;;;;;;5062397;28;20182;-76
2023/05/20 03:52:02;;;;;;;11.93;11.43;;;14.10;35.10;;;;;;5045359;28;20211;-76
2023/05/20 03:54:30;;;;;;;11.90;11.40;;;14.20;35.20;;;;;;5062308;28;20270;-75
2023/05/20 03:56:55;;;;;;;12.93;12.23;;;14.20;35.20;;;;;;5043369;28;20413;-75
2023/05/20 03:59:21;;;;;;;12.37;11.87;;;14.20;35.20;;;;;;5060012;28;20409;-74
2023/05/20 04:01:47;;;;;;;11.80;11.30;;;14.00;36.20;;;;;;5062086;28;20574;-75
2023/05/20 04:04:12;;;;;;;12.13;11.53;;;14.00;36.70;;;;;;5045343;28;20219;-76
2023/05/20 04:06:39;;;;;;;12.63;12.03;;;14.10;36.20;;;;;;5062155;28;20236;-75
2023/05/20 04:09:05;;;;;;;12.87;12.17;;;14.00;36.60;;;;;;5061834;28;20903;-75
2023/05/20 04:11:30;;;;;;;12.00;11.50;;;14.10;36.30;;;;;;5064688;28;20211;-75
2023/05/20 04:13:57;;;;;;;12.13;11.43;;;14.10;35.90;;;;;;5062986;28;20429;-75
2023/05/20 04:16:23;;;;;;;12.40;11.70;;;14.00;36.30;;;;;;5062621;28;20531;-75
2023/05/20 04:18:49;;;;;;;13.67;12.87;;;14.00;36.60;;;;;;5066057;28;20420;-76
2023/05/20 04:21:15;;;;;;;12.37;11.77;;;14.00;36.70;;;;;;5064825;28;20182;-76
2023/05/20 04:23:40;;;;;;;12.97;12.37;;;14.00;36.70;;;;;;5067689;28;20433;-76
2023/05/20 04:26:06;;;;;;;12.83;12.23;;;14.10;36.60;;;;;;5066198;28;20254;-75
2023/05/20 04:28:31;;;;;;;12.87;12.07;;;14.20;36.60;;;;;;5066913;28;20171;-75
2023/05/20 04:30:59;;;;;;;12.53;11.83;;;14.40;36.00;;;;;;5068087;28;20199;-75
2023/05/20 04:33:25;;;;;;;12.23;11.63;;;14.50;35.50;;;;;;5067279;28;20570;-75
2023/05/20 04:35:51;;;;;;;14.40;13.60;;;14.50;35.50;;;;;;5069138;28;20409;-75
2023/05/20 04:38:16;;;;;;;12.57;11.87;;;14.60;35.60;;;;;;5069080;28;20411;-77
2023/05/20 04:40:42;;;;;;;12.00;11.50;;;14.60;35.40;;;;;;5050923;28;20160;-75
2023/05/20 04:43:08;;;;;;;12.30;11.70;;;14.60;35.50;;;;;;5052367;28;20203;-76
2023/05/20 04:45:34;;;;;;;12.40;11.80;;;14.70;35.60;;;;;;5072488;28;20191;-76
2023/05/20 04:48:00;;;;;;;12.87;12.17;;;14.70;35.00;;;;;;5071236;28;20228;-75
2023/05/20 04:50:25;;;;;;;13.30;12.57;;;14.60;35.60;;;;;;5070201;28;20979;-75
2023/05/20 04:52:51;;;;;;;12.90;12.20;;;14.60;35.60;;;;;;5072576;28;20246;-75
2023/05/20 04:55:18;;;;;;;13.00;12.40;;;14.60;35.60;;;;;;5074655;28;20193;-75
2023/05/20 04:57:44;;;;;;;11.87;11.37;;;14.60;35.60;;;;;;5075538;28;20202;-74
2023/05/20 05:00:11;;;;;;;13.83;13.13;;;14.60;35.60;;;;;;5076117;28;20425;-74
2023/05/20 05:02:37;;;;;;;13.17;12.57;;;14.50;35.50;;;;;;5076224;28;20189;-74
2023/05/20 05:05:02;;;;;;;13.90;13.17;;;14.60;35.50;;;;;;5076942;28;20451;-74
2023/05/20 05:07:28;;;;;;;14.90;13.60;;;14.60;35.60;;;;;;5074054;28;20183;-74
2023/05/20 05:09:53;;;;;;;13.30;12.40;;;14.60;35.50;;;;;;5075971;28;20551;-74
2023/05/20 05:12:19;;;;;;;11.67;11.07;;;14.70;35.60;;;;;;5075551;28;20187;-74
2023/05/20 05:14:44;;;;;;;12.63;12.03;;;14.80;35.20;;;;;;5075010;28;20195;-73
2023/05/20 05:17:10;;;;;;;12.70;12.10;;;14.90;35.10;;;;;;5069976;28;20187;-74
2023/05/20 05:19:35;;;;;;;14.00;13.30;;;15.00;34.60;;;;;;5074322;28;20187;-73
2023/05/20 05:22:01;;;;;;;13.90;13.20;;;14.90;34.50;;;;;;5075007;28;20183;-73
2023/05/20 05:24:27;;;;;;;13.70;13.00;;;14.90;34.40;;;;;;5057198;28;20249;-73
2023/05/20 05:26:53;;;;;;;13.10;12.50;;;14.80;35.10;;;;;;5076489;28;20421;-74
2023/05/20 05:29:19;;;;;;;14.00;13.17;;;14.80;35.20;;;;;;5075767;28;20243;-73
2023/05/20 05:31:44;;;;;;;14.60;13.70;;;14.90;35.60;;;;;;5075663;28;20950;-75
2023/05/20 05:34:10;;;;;;;14.20;13.50;;;15.00;35.90;;;;;;5076278;28;20189;-75
2023/05/20 05:36:38;;;;;;;14.17;13.37;;;15.10;36.00;;;;;;5075589;28;20179;-76
2023/05/20 05:39:04;;;;;;;13.33;12.70;;;15.10;34.60;;;;;;5073614;28;20275;-76
2023/05/20 05:41:29;;;;;;;13.37;12.67;;;15.10;34.50;;;;;;5056202;28;20894;-76
2023/05/20 05:43:55;;;;;;;15.30;14.53;;;15.20;34.50;;;;;;5072729;28;20683;-74
2023/05/20 05:46:20;;;;;;;14.50;13.77;;;15.20;35.10;;;;;;5056711;28;20172;-76
2023/05/20 05:48:49;;;;;;;13.90;13.20;;;15.20;34.80;;;;;;5073861;28;20171;-75
2023/05/20 05:51:14;;;;;;;14.27;13.57;;;15.20;34.20;;;;;;5054791;28;20221;-75
2023/05/20 05:53:40;;;;;;;13.37;12.67;;;15.30;34.30;;;;;;5074835;28;20499;-74
2023/05/20 05:56:06;;;;;;;14.90;14.10;;;15.20;34.00;;;;;;5074258;28;20174;-75
2023/05/20 05:58:31;;;;;;;13.93;13.10;;;15.30;36.20;;;;;;5076069;28;20182;-75
2023/05/20 06:00:57;;;;;;;15.10;14.20;;;15.30;35.50;;;;;;5057423;28;20813;-74
2023/05/20 06:03:23;;;;;;;14.13;13.23;;;15.40;35.10;;;;;;5075500;28;20539;-74
2023/05/20 06:05:48;;;;;;;12.70;12.10;;;15.50;34.70;;;;;;5075027;28;20199;-74
2023/05/20 06:08:14;;;;;;;12.13;11.63;;;15.50;34.80;;;;;;5074758;28;20195;-75
2023/05/20 06:10:40;;;;;;;14.10;13.30;;;15.50;34.70;;;;;;5074593;28;20195;-75
2023/05/20 06:13:05;;;;;;;13.60;12.83;;;15.60;34.70;;;;;;5075330;28;20179;-74
2023/05/20 06:15:31;;;;;;;13.33;12.67;;;15.70;35.20;;;;;;5075454;28;20217;-73
2023/05/20 06:17:56;;;;;;;23.33;14.13;;;15.60;34.30;;;;;;5074573;28;20544;-74
2023/05/20 06:20:22;;;;;;;14.67;13.93;;;15.50;35.10;;;;;;5074835;28;20193;-75
2023/05/20 06:22:47;;;;;;;14.87;14.07;;;15.50;35.50;;;;;;5074145;28;20596;-73
2023/05/20 06:25:13;;;;;;;12.87;12.27;;;15.40;35.50;;;;;;5073733;28;20300;-74
2023/05/20 06:27:38;;;;;;;14.27;13.57;;;15.40;35.80;;;;;;5056049;28;20650;-74
2023/05/20 06:30:05;;;;;;;14.10;13.30;;;15.60;36.40;;;;;;5073148;28;20193;-74
2023/05/20 06:32:30;;;;;;;13.67;12.93;;;15.60;35.70;;;;;;5073896;28;20668;-76
2023/05/20 06:34:56;;;;;;;13.60;12.90;;;15.60;36.40;;;;;;5073564;28;20425;-74
2023/05/20 06:37:24;;;;;;;14.83;14.03;;;15.50;36.00;;;;;;5073296;28;20171;-75
2023/05/20 06:39:52;;;;;;;14.27;13.57;;;15.50;36.30;;;;;;5055497;28;20190;-75
2023/05/20 06:42:19;;;;;;;14.67;13.50;;;15.70;36.50;;;;;;5070465;28;20416;-75
2023/05/20 06:44:45;;;;;;;14.57;13.60;;;15.60;36.50;;;;;;5074338;28;20431;-75
2023/05/20 06:47:14;;;;;;;12.67;12.07;;;15.70;36.20;;;;;;5072781;28;20413;-75
2023/05/20 06:49:41;;;;;;;14.87;14.07;;;15.70;35.00;;;;;;5073877;28;20178;-74
2023/05/20 06:52:06;;;;;;;13.70;13.00;;;15.80;35.70;;;;;;5072642;28;20563;-74
2023/05/20 06:54:34;;;;;;;14.27;13.57;;;15.80;35.20;;;;;;5072151;28;20520;-74
2023/05/20 06:57:00;;;;;;;15.50;14.70;;;15.80;34.80;;;;;;5072905;28;20604;-74
2023/05/20 06:59:25;;;;;;;15.37;14.23;;;15.80;34.80;;;;;;5073433;28;20467;-74
2023/05/20 07:01:51;;;;;;;14.73;13.97;;;15.90;35.10;;;;;;5073123;28;20278;-73
2023/05/20 07:04:16;;;;;;;13.93;13.17;;;16.00;34.50;;;;;;5074667;28;20230;-74
2023/05/20 07:06:42;;;;;;;13.77;13.07;;;16.00;34.50;;;;;;5056276;28;20665;-74
2023/05/20 07:09:07;;;;;;;14.43;13.63;;;16.00;34.60;;;;;;5072752;28;20217;-75
2023/05/20 07:11:33;;;;;;;13.90;13.10;;;16.00;34.50;;;;;;5055401;28;20462;-74
2023/05/20 07:13:59;;;;;;;13.13;12.47;;;16.10;34.30;;;;;;5055138;28;20195;-75
2023/05/20 07:16:24;;;;;;;14.10;13.20;;;16.10;32.90;;;;;;5073445;28;20179;-74
2023/05/20 07:18:50;;;;;;;13.20;12.60;;;16.20;32.90;;;;;;5060510;28;20262;-74
2023/05/20 07:21:16;;;;;;;13.97;12.93;;;16.20;32.80;;;;;;5076215;28;20179;-74
2023/05/20 07:23:42;;;;;;;13.67;12.97;;;16.30;32.20;;;;;;5077911;28;20198;-75
2023/05/20 07:26:07;;;;;;;13.80;13.00;;;16.30;32.00;;;;;;5077794;28;20409;-74
2023/05/20 07:28:34;;;;;;;13.93;13.23;;;16.40;32.40;;;;;;5079922;28;20167;-74
2023/05/20 07:30:59;;;;;;;13.80;13.07;;;16.50;31.90;;;;;;5083218;28;20201;-74
2023/05/20 07:33:25;;;;;;;14.40;13.60;;;16.50;31.90;;;;;;5072729;28;20406;-74
2023/05/20 07:35:53;;;;;;;13.17;12.57;;;16.60;31.40;;;;;;5073126;28;20183;-74
2023/05/20 07:38:18;;;;;;;13.70;12.90;;;16.60;31.40;;;;;;5072745;28;20178;-74
2023/05/20 07:40:44;;;;;;;13.20;12.60;;;16.60;31.30;;;;;;5072742;28;20421;-74
2023/05/20 07:43:09;;;;;;;13.87;13.20;;;16.70;31.60;;;;;;5053726;28;20707;-75
2023/05/20 07:45:35;;;;;;;13.93;13.13;;;16.80;31.20;;;;;;5072764;28;20190;-75
2023/05/20 07:48:01;;;;;;;12.43;11.77;;;16.90;31.10;;;;;;5054541;28;20195;-75
2023/05/20 07:50:27;;;;;;;14.47;13.67;;;16.90;30.70;;;;;;5073067;28;20987;-75
2023/05/20 07:52:52;;;;;;;13.20;12.27;;;17.00;31.00;;;;;;5075344;28;20167;-75
2023/05/20 07:55:18;;;;;;;13.57;12.70;;;17.00;30.90;;;;;;5061734;28;20195;-75
2023/05/20 07:57:43;;;;;;;13.27;12.60;;;17.20;30.70;;;;;;5072364;28;20198;-74
2023/05/20 08:00:11;;;;;;;13.23;12.53;;;17.20;30.60;;;;;;5073319;28;20701;-74
2023/05/20 08:02:36;;;;;;;12.90;12.30;;;17.20;30.00;;;;;;5072226;28;20186;-74
2023/05/20 08:05:02;;;;;;;12.80;11.90;;;17.10;30.30;;;;;;5072841;28;20437;-74
2023/05/20 08:07:27;;;;;;;12.93;12.10;;;17.20;30.50;;;;;;5071815;28;20274;-75
2023/05/20 08:09:53;;;;;;;13.27;12.67;;;17.20;30.20;;;;;;5071322;28;20712;-75
2023/05/20 08:12:18;;;;;;;12.70;12.10;;;17.30;30.80;;;;;;5070166;28;20207;-74
2023/05/20 08:14:44;;;;;;;13.80;13.10;;;17.40;30.60;;;;;;5071259;28;20214;-74
2023/05/20 08:17:09;;;;;;;14.03;13.07;;;17.30;30.40;;;;;;5071974;28;20175;-74
2023/05/20 08:19:35;;;;;;;13.27;12.47;;;17.40;31.00;;;;;;5073242;28;20169;-73
2023/05/20 08:22:01;;;;;;;14.37;13.57;;;17.40;30.70;;;;;;5072926;28;20552;-74
2023/05/20 08:24:26;;;;;;;14.73;13.80;;;17.30;30.50;;;;;;5073257;28;20195;-75
2023/05/20 08:26:52;;;;;;;14.07;13.27;;;17.40;30.00;;;;;;5072950;28;20405;-73
2023/05/20 08:29:17;;;;;;;12.70;12.10;;;17.30;29.80;;;;;;5076850;28;20238;-74
2023/05/20 08:31:43;;;;;;;14.27;13.37;;;17.40;30.10;;;;;;5076858;28;20652;-74
2023/05/20 08:34:09;;;;;;;14.40;13.60;;;17.30;30.70;;;;;;5075762;28;20691;-74
2023/05/20 08:36:34;;;;;;;14.83;13.93;;;17.30;30.40;;;;;;5076830;28;20210;-75
2023/05/20 08:39:00;;;;;;;13.70;13.00;;;17.40;30.50;;;;;;5076500;28;20191;-75
2023/05/20 08:41:26;;;;;;;13.90;13.17;;;17.30;29.80;;;;;;5075488;28;20227;-75
2023/05/20 08:43:53;;;;;;;14.90;14.10;;;17.40;29.90;;;;;;5071731;28;20441;-74
2023/05/20 08:46:20;;;;;;;14.47;13.67;;;17.40;30.00;;;;;;5076115;28;20183;-75
2023/05/20 08:48:46;;;;;;;14.83;14.03;;;17.50;29.50;;;;;;5076153;28;20413;-74
2023/05/20 08:51:14;;;;;;;13.03;12.33;;;17.50;29.20;;;;;;5075904;28;20473;-76
2023/05/20 08:53:40;;;;;;;14.00;13.20;;;17.60;28.90;;;;;;5076575;28;20524;-74
2023/05/20 08:56:07;;;;;;;14.37;13.57;;;17.60;28.90;;;;;;5056851;28;20492;-74
2023/05/20 08:58:33;;;;;;;14.50;13.70;;;17.60;28.40;;;;;;5057487;28;20464;-74
2023/05/20 09:00:58;;;;;;;14.40;13.60;;;17.60;28.90;;;;;;5076138;28;20820;-75
2023/05/20 09:03:24;;;;;;;14.57;13.87;;;17.80;28.90;;;;;;5075096;28;20233;-74
2023/05/20 09:05:50;;;;;;;15.13;14.33;;;17.80;28.50;;;;;;5058400;28;20250;-75
2023/05/20 09:08:16;;;;;;;14.50;13.80;;;17.90;28.50;;;;;;5075212;28;20666;-75
2023/05/20 09:10:41;;;;;;;13.57;12.87;;;18.00;29.70;;;;;;5076338;28;20492;-76
2023/05/20 09:13:08;;;;;;;14.20;13.20;;;18.00;29.70;;;;;;5075841;28;20645;-75
2023/05/20 09:15:35;;;;;;;14.13;13.27;;;18.10;28.70;;;;;;5075826;28;20198;-74
2023/05/20 09:18:06;;;;;;;14.03;13.30;;;18.10;28.70;;;;;;5077815;28;20397;-76
2023/05/20 09:20:35;;;;;;;13.40;12.60;;;18.10;29.40;;;;;;5055902;28;20451;-74
2023/05/20 09:23:03;;;;;;;17.10;15.40;;;18.20;28.80;;;;;;5056990;28;20809;-73
2023/05/20 09:25:29;;;;;;;13.60;12.70;;;18.20;29.30;;;;;;5074064;28;20932;-74
2023/05/20 09:27:55;;;;;;;13.50;12.43;;;18.20;28.70;;;;;;5055775;28;20509;-74
2023/05/20 09:30:21;;;;;;;12.97;12.27;;;18.10;28.50;;;;;;5073359;28;20460;-74
2023/05/20 09:32:58;;;;;;;12.10;11.50;;;18.10;28.70;;;;;;5065618;28;20423;-75
2023/05/20 09:35:25;;;;;;;12.97;12.30;;;18.20;28.30;;;;;;5067511;28;20439;-74
2023/05/20 09:37:57;;;;;;;11.80;11.20;;;18.30;27.90;;;;;;5072828;28;20438;-75
2023/05/20 09:40:27;;;;;;;13.33;12.53;;;18.30;27.80;;;;;;5065838;28;20405;-74
2023/05/20 09:42:58;;;;;;;12.03;11.23;;;18.40;27.20;;;;;;5074392;28;20413;-74
2023/05/20 09:45:23;;;;;;;12.33;11.67;;;18.60;28.20;;;;;;5075108;28;20943;-74
2023/05/20 09:47:51;;;;;;;12.93;12.17;;;18.70;28.50;;;;;;5073317;28;20425;-74
2023/05/20 09:50:20;;;;;;;12.80;12.10;;;18.90;27.20;;;;;;5074207;28;20254;-74
2023/05/20 09:52:47;;;;;;;12.73;11.97;;;19.00;26.60;;;;;;5055841;28;20417;-75
2023/05/20 09:55:16;;;;;;;13.23;12.10;;;19.10;26.10;;;;;;5074668;28;20541;-75
2023/05/20 09:57:42;;;;;;;11.80;11.10;;;19.30;27.80;;;;;;5074000;28;20424;-74
2023/05/20 10:00:09;;;;;;;13.50;12.70;;;19.40;25.40;;;;;;5073200;28;20417;-74
2023/05/20 10:02:35;;;;;;;12.23;11.60;;;19.50;24.60;;;;;;5073557;28;20425;-74
2023/05/20 10:05:05;;;;;;;12.67;11.97;;;19.70;25.40;;;;;;5074978;28;20416;-74
2023/05/20 10:08:10;;;;;;;13.07;12.27;;;19.90;24.10;;;;;;5070720;28;20931;-75
2023/05/20 10:10:55;;;;;;;13.30;12.50;;;20.20;23.80;;;;;;5055070;28;20473;-75
2023/05/20 10:14:01;;;;;;;11.80;11.20;;;20.40;23.80;;;;;;5072467;28;20421;-74
2023/05/20 10:16:48;;;;;;;12.23;11.63;;;20.50;23.10;;;;;;5074760;28;20398;-74
2023/05/20 10:19:27;;;;;;;13.43;12.67;;;20.70;22.20;;;;;;5075385;28;20406;-74
2023/05/20 10:22:00;;;;;;;12.93;12.03;;;20.80;22.30;;;;;;5073870;28;20413;-73
2023/05/20 10:24:34;;;;;;;12.23;11.53;;;20.80;21.90;;;;;;5074091;28;20496;-74
2023/05/20 10:27:07;;;;;;;11.43;10.70;;;20.80;21.90;;;;;;5072989;28;20409;-75
2023/05/20 10:29:50;;;;;;;11.70;10.80;;;20.90;21.60;;;;;;5072025;28;20409;-75
2023/05/20 10:32:27;;;;;;;11.23;10.53;;;20.80;21.80;;;;;;5065269;28;20908;-74
2023/05/20 10:34:58;;;;;;;12.17;11.47;;;20.80;22.30;;;;;;5072755;28;20436;-75
2023/05/20 10:37:26;;;;;;;11.40;10.70;;;20.90;21.90;;;;;;5072262;28;20932;-74
2023/05/20 10:40:10;;;;;;;11.20;10.50;;;20.70;22.20;;;;;;5055768;28;20418;-74
2023/05/20 10:42:35;;;;;;;12.70;11.83;;;20.50;22.00;;;;;;5067824;28;20626;-73
2023/05/20 10:45:02;;;;;;;11.70;11.10;;;20.50;22.40;;;;;;5074105;28;20422;-74
2023/05/20 10:47:28;;;;;;;12.80;12.00;;;20.60;24.30;;;;;;5074691;28;20167;-74
2023/05/20 10:49:54;;;;;;;11.20;10.50;;;20.60;22.10;;;;;;5072340;28;20439;-73
2023/05/20 10:52:19;;;;;;;11.13;10.53;;;20.70;22.40;;;;;;5072889;28;20231;-73
2023/05/20 10:54:59;;;;;;;10.70;10.10;;;20.90;21.90;;;;;;5073486;28;20278;-74
2023/05/20 10:57:28;;;;;;;10.80;10.20;;;21.00;21.20;;;;;;5074104;28;20178;-74
2023/05/20 10:59:55;;;;;;;9.30;8.70;;;21.10;20.60;;;;;;5072388;28;20414;-74
2023/05/20 11:02:27;;;;;;;11.33;10.73;;;21.10;20.30;;;;;;5072540;28;20460;-75
2023/05/20 11:04:56;;;;;;;10.60;10.00;;;21.10;20.60;;;;;;5074050;28;20836;-74
2023/05/20 11:07:30;;;;;;;10.80;10.20;;;21.10;23.70;;;;;;5072221;28;20477;-73
2023/05/20 11:09:59;;;;;;;11.17;10.50;;;21.20;22.20;;;;;;5072452;28;20417;-74
2023/05/20 11:12:29;;;;;;;12.00;11.30;;;21.20;20.70;;;;;;5072065;28;20530;-74
2023/05/20 11:14:54;;;;;;;10.77;10.17;;;21.10;21.40;;;;;;5055380;28;20421;-74
2023/05/20 11:17:20;;;;;;;10.33;9.73;;;21.10;21.90;;;;;;5074674;28;20942;-75
2023/05/20 11:19:47;;;;;;;11.13;10.10;;;21.20;21.10;;;;;;5072963;28;20241;-75
2023/05/20 11:22:12;;;;;;;11.60;10.90;;;21.30;22.60;;;;;;5071395;28;20826;-74
2023/05/20 11:24:38;;;;;;;11.67;10.50;;;21.20;20.60;;;;;;5072959;28;20431;-74
2023/05/20 11:27:04;;;;;;;10.87;10.27;;;21.10;21.10;;;;;;5072101;28;20525;-73
2023/05/20 11:29:31;;;;;;;10.53;9.93;;;21.00;25.60;;;;;;5071817;28;20461;-74
2023/05/20 11:31:58;;;;;;;11.73;10.90;;;21.00;22.30;;;;;;5070483;28;20457;-74
2023/05/20 11:34:23;;;;;;;11.20;10.40;;;20.90;20.70;;;;;;5066998;28;20966;-75
2023/05/20 11:36:56;;;;;;;10.93;10.30;;;20.90;21.20;;;;;;5050646;28;20418;-74
2023/05/20 11:39:22;;;;;;;10.13;9.63;;;20.90;21.50;;;;;;5063280;28;20190;-74
2023/05/20 11:41:47;;;;;;;10.80;10.20;;;20.80;22.80;;;;;;5069151;28;20426;-75
2023/05/20 11:44:13;;;;;;;11.37;10.67;;;20.80;20.80;;;;;;5069351;28;20635;-74
2023/05/20 11:46:46;;;;;;;11.53;10.83;;;20.80;20.90;;;;;;5070131;28;20159;-74
2023/05/20 11:49:13;;;;;;;10.43;9.83;;;20.70;20.70;;;;;;5070583;28;20242;-74
2023/05/20 11:51:39;;;;;;;10.87;10.07;;;20.70;21.20;;;;;;5068889;28;20497;-75
2023/05/20 11:54:06;;;;;;;10.90;10.27;;;20.70;22.20;;;;;;5071021;28;20488;-74
2023/05/20 11:56:40;;;;;;;10.90;10.37;;;20.70;21.20;;;;;;5071656;28;20637;-75
2023/05/20 11:59:07;;;;;;;11.80;11.10;;;20.70;22.20;;;;;;5053430;28;20511;-74
2023/05/20 12:01:39;;;;;;;10.60;10.00;;;20.60;21.30;;;;;;5052180;28;20441;-74
2023/05/20 12:04:05;;;;;;;12.43;11.63;;;20.70;21.70;;;;;;5071005;28;20540;-74
2023/05/20 12:06:31;;;;;;;11.20;10.50;;;20.70;21.70;;;;;;5055561;28;20527;-74
2023/05/20 12:08:59;;;;;;;11.00;10.20;;;20.70;22.20;;;;;;5072173;28;20886;-75
2023/05/20 12:11:25;;;;;;;10.93;10.33;;;20.70;21.30;;;;;;5071316;28;20199;-75
2023/05/20 12:13:51;;;;;;;10.17;9.37;;;20.70;21.50;;;;;;5072249;28;20548;-74
2023/05/20 12:16:16;;;;;;;11.20;10.60;;;20.70;22.60;;;;;;5065204;28;20236;-74
2023/05/20 12:18:42;;;;;;;10.73;10.07;;;20.80;22.80;;;;;;5054665;28;20211;-74
2023/05/20 12:21:08;;;;;;;11.50;10.77;;;20.80;22.20;;;;;;5073348;28;20205;-75
2023/05/20 12:23:33;;;;;;;10.60;10.00;;;20.90;21.80;;;;;;5073122;28;20541;-73
2023/05/20 12:25:59;;;;;;;10.93;10.07;;;20.90;21.30;;;;;;5073245;28;20422;-74